Time;durP1;ratioP1;P1;durP2;ratioP2;P2;SDS_P1;SDS_P2;PMS_P1;PMS_P2;Temp;Humidity;BMP_temperature;BMP_pressure;BME280_temperature;BME280_humidity;BME280_pressure;Samples;Min_cycle;Max_cycle;Signal;HPM_P1;HPM_P2
2023/08/14 00:00:10;;;;;;;14.40;8.38;;;;;;;16.83;100.00;101469.28;6232622;23;20523;-83
2023/08/14 00:02:36;;;;;;;12.15;7.88;;;;;;;16.91;100.00;101479.88;6216154;23;20008;-83
2023/08/14 00:05:01;;;;;;;13.85;7.80;;;;;;;16.84;100.00;101457.53;6215611;23;20005;-83
2023/08/14 00:07:26;;;;;;;12.10;8.00;;;;;;;16.79;100.00;101456.25;6215805;23;20005;-84
2023/08/14 00:09:52;;;;;;;15.50;7.75;;;;;;;16.85;100.00;101470.75;6216126;23;20429;-82
2023/08/14 00:12:17;;;;;;;13.18;8.38;;;;;;;16.85;100.00;101472.59;6215974;23;20084;-83
2023/08/14 00:14:43;;;;;;;13.70;8.52;;;;;;;16.80;100.00;101468.63;6215867;23;20342;-83
2023/08/14 00:17:08;;;;;;;11.50;8.38;;;;;;;16.84;100.00;101471.78;6188962;23;20016;-82
2023/08/14 00:19:33;;;;;;;13.50;8.40;;;;;;;16.81;100.00;101469.44;6188810;23;20023;-84
2023/08/14 00:21:59;;;;;;;14.68;8.90;;;;;;;16.76;100.00;101472.69;6215734;23;20031;-83
2023/08/14 00:24:24;;;;;;;14.73;8.48;;;;;;;16.63;100.00;101451.13;6215827;23;20492;-82
2023/08/14 00:26:49;;;;;;;14.43;8.63;;;;;;;16.74;100.00;101464.03;6215414;23;20417;-83
2023/08/14 00:29:14;;;;;;;14.50;8.82;;;;;;;16.67;100.00;101449.72;6216173;23;20494;-83
2023/08/14 00:31:40;;;;;;;13.25;9.23;;;;;;;16.60;100.00;101440.78;6216157;23;20135;-83
2023/08/14 00:34:05;;;;;;;16.83;9.43;;;;;;;16.57;100.00;101435.81;6189089;23;20005;-84
2023/08/14 00:36:30;;;;;;;12.00;8.18;;;;;;;16.63;100.00;101456.47;6215583;23;20340;-82
2023/08/14 00:38:56;;;;;;;13.00;8.90;;;;;;;16.58;100.00;101464.22;6215670;23;20410;-83
2023/08/14 00:41:21;;;;;;;13.25;8.43;;;;;;;16.43;100.00;101437.47;6215211;23;20008;-83
2023/08/14 00:43:46;;;;;;;12.75;7.95;;;;;;;16.54;100.00;101466.47;6215598;23;20426;-82
2023/08/14 00:46:13;;;;;;;16.50;9.00;;;;;;;16.44;100.00;101448.00;6215689;23;20031;-83
2023/08/14 00:48:38;;;;;;;13.88;9.00;;;;;;;16.47;100.00;101458.31;6216636;23;20016;-83
2023/08/14 00:51:04;;;;;;;13.60;9.02;;;;;;;16.35;100.00;101439.25;6217607;23;20015;-84
2023/08/14 00:53:30;;;;;;;15.45;9.80;;;;;;;16.35;100.00;101457.97;6217508;23;20013;-83
2023/08/14 00:55:57;;;;;;;14.95;9.43;;;;;;;16.42;100.00;101455.38;6217544;23;20397;-83
2023/08/14 00:58:23;;;;;;;17.52;9.88;;;;;;;16.40;100.00;101452.06;6218352;23;20012;-84
2023/08/14 01:00:49;;;;;;;13.20;9.05;;;;;;;16.38;100.00;101448.75;6217364;23;20501;-83
2023/08/14 01:03:16;;;;;;;15.23;10.00;;;;;;;16.25;100.00;101427.97;6217411;23;20059;-83
2023/08/14 01:05:41;;;;;;;16.65;10.00;;;;;;;16.23;100.00;101424.66;6217571;23;20481;-82
2023/08/14 01:08:06;;;;;;;18.02;9.70;;;;;;;16.43;100.00;101446.31;6217288;23;20087;-84
2023/08/14 01:11:34;;;;;;;15.43;9.00;;;;;;;16.48;100.00;101446.59;6217479;23;20001;-83
2023/08/14 01:14:19;;;;;;;15.18;9.75;;;;;;;16.36;100.00;101445.41;6067197;23;20010;-83
2023/08/14 01:16:49;;;;;;;16.38;9.55;;;;;;;16.14;100.00;101438.13;6067386;23;20429;-84
2023/08/14 01:19:21;;;;;;;12.25;9.00;;;;;;;16.09;100.00;101434.34;6185890;23;20024;-83
2023/08/14 01:22:14;;;;;;;15.57;9.83;;;;;;;16.21;100.00;101434.69;6217704;23;20050;-82
2023/08/14 01:24:58;;;;;;;18.23;9.93;;;;;;;16.09;100.00;101420.97;6148738;23;20244;-82
2023/08/14 01:27:23;;;;;;;18.30;10.52;;;;;;;16.21;100.00;101432.88;6217409;23;20239;-83
2023/08/14 01:29:57;;;;;;;17.25;10.73;;;;;;;16.19;100.00;101428.72;6217442;23;20009;-84
2023/08/14 01:32:23;;;;;;;17.15;10.30;;;;;;;16.08;100.00;101422.00;6190842;23;20036;-83
2023/08/14 01:34:48;;;;;;;16.42;10.02;;;;;;;16.16;100.00;101424.56;6217413;23;20035;-83
2023/08/14 01:37:24;;;;;;;17.55;10.93;;;;;;;16.17;100.00;101423.53;6217263;23;20079;-83
2023/08/14 01:39:59;;;;;;;15.68;10.57;;;;;;;16.02;100.00;101412.84;6216921;23;20007;-83
2023/08/14 01:42:31;;;;;;;17.08;9.15;;;;;;;16.07;100.00;101404.25;6217092;23;20091;-84
2023/08/14 01:45:02;;;;;;;14.90;10.00;;;;;;;16.17;100.00;101425.41;6217612;23;20004;-83
2023/08/14 01:47:30;;;;;;;15.60;9.38;;;;;;;15.95;100.00;101396.72;6217030;23;20056;-83
2023/08/14 01:49:57;;;;;;;17.25;9.32;;;;;;;15.99;100.00;101395.31;6217024;23;20001;-83
2023/08/14 01:52:23;;;;;;;16.88;9.75;;;;;;;15.85;100.00;101374.72;6217013;23;20008;-83
2023/08/14 01:54:48;;;;;;;14.85;9.70;;;;;;;15.92;100.00;101391.72;6190278;23;20393;-85
2023/08/14 01:57:13;;;;;;;14.70;9.18;;;;;;;15.87;100.00;101394.91;6216957;23;20080;-83
2023/08/14 01:59:45;;;;;;;14.15;8.95;;;;;;;15.89;100.00;101381.34;6216551;23;20282;-84
2023/08/14 02:02:13;;;;;;;14.88;9.80;;;;;;;15.94;100.00;101395.03;6217327;23;20004;-83
2023/08/14 02:04:39;;;;;;;16.42;9.23;;;;;;;15.99;100.00;101403.34;6190185;23;20065;-83
2023/08/14 02:07:09;;;;;;;16.83;8.95;;;;;;;15.93;100.00;101397.91;6216677;23;20437;-82
2023/08/14 02:09:35;;;;;;;13.10;8.98;;;;;;;15.85;100.00;101380.06;6190212;23;20004;-84
2023/08/14 02:12:00;;;;;;;15.30;8.98;;;;;;;15.88;100.00;101390.38;6216845;23;20005;-83
2023/08/14 02:14:26;;;;;;;14.65;9.25;;;;;;;15.86;100.00;101389.75;6216752;23;20315;-82
2023/08/14 02:16:51;;;;;;;14.80;8.70;;;;;;;15.74;100.00;101367.94;6216071;23;20361;-82
2023/08/14 02:19:17;;;;;;;15.07;8.90;;;;;;;15.78;100.00;101373.78;6216229;23;20009;-82
2023/08/14 02:21:42;;;;;;;14.20;8.75;;;;;;;15.84;100.00;101378.41;6216512;23;20011;-82
2023/08/14 02:24:08;;;;;;;15.57;8.80;;;;;;;15.78;100.00;101360.44;6189121;23;20016;-83
2023/08/14 02:26:33;;;;;;;15.68;9.07;;;;;;;15.81;100.00;101362.72;6215983;23;20092;-82
2023/08/14 02:28:58;;;;;;;15.30;8.27;;;;;;;15.79;100.00;101370.09;6214505;23;20127;-84
2023/08/14 02:31:24;;;;;;;14.80;8.38;;;;;;;15.82;100.00;101369.72;6216307;23;20059;-83
2023/08/14 02:33:49;;;;;;;14.25;8.80;;;;;;;15.84;100.00;101373.88;6216519;23;20080;-83
2023/08/14 02:36:14;;;;;;;12.98;8.23;;;;;;;15.81;100.00;101357.38;6216719;23;20452;-84
2023/08/14 02:38:40;;;;;;;12.73;8.10;;;;;;;15.83;100.00;101355.34;6216731;23;20012;-83
2023/08/14 02:41:06;;;;;;;12.90;8.27;;;;;;;15.78;100.00;101352.41;6216830;23;20410;-84
2023/08/14 02:43:32;;;;;;;12.35;8.30;;;;;;;15.78;100.00;101357.75;6216648;23;20000;-83
2023/08/14 02:45:57;;;;;;;14.43;8.30;;;;;;;15.86;100.00;101365.69;6191997;23;20005;-82
2023/08/14 02:48:23;;;;;;;13.00;8.05;;;;;;;15.77;100.00;101353.41;6216443;23;20011;-82
2023/08/14 02:50:48;;;;;;;14.52;8.10;;;;;;;15.84;100.00;101362.38;6216245;23;20058;-82
2023/08/14 02:53:14;;;;;;;12.48;8.05;;;;;;;15.76;100.00;101355.25;6216274;23;20005;-83
2023/08/14 02:55:39;;;;;;;14.82;8.32;;;;;;;15.80;100.00;101369.09;6189518;23;20004;-82
2023/08/14 02:58:04;;;;;;;11.45;7.22;;;;;;;15.73;100.00;101345.75;6189649;23;20314;-83
2023/08/14 03:00:30;;;;;;;12.15;7.75;;;;;;;15.77;100.00;101361.41;6216072;23;20031;-83
2023/08/14 03:02:55;;;;;;;9.93;7.47;;;;;;;15.63;100.00;101339.84;6216680;23;20008;-83
2023/08/14 03:05:20;;;;;;;11.70;7.32;;;;;;;15.72;100.00;101368.16;6216533;23;20034;-82
2023/08/14 03:07:46;;;;;;;13.60;7.55;;;;;;;15.44;100.00;101334.00;6216633;23;20433;-82
2023/08/14 03:10:11;;;;;;;11.40;7.72;;;;;;;15.62;100.00;101359.56;6189744;23;20009;-83
2023/08/14 03:12:37;;;;;;;12.73;7.55;;;;;;;15.53;100.00;101344.59;6216387;23;20334;-82
2023/08/14 03:15:03;;;;;;;12.60;7.63;;;;;;;15.58;100.00;101363.59;6216271;23;20046;-83
2023/08/14 03:17:29;;;;;;;12.35;7.53;;;;;;;15.56;100.00;101360.28;6216121;23;20018;-83
2023/08/14 03:19:54;;;;;;;12.93;7.13;;;;;;;15.44;100.00;101358.06;6189641;23;20036;-82
2023/08/14 03:22:19;;;;;;;11.05;7.00;;;;;;;15.56;100.00;101377.19;6216227;23;20365;-83
2023/08/14 03:24:45;;;;;;;9.75;7.15;;;;;;;15.41;100.00;101355.75;6189794;23;20341;-83
2023/08/14 03:27:11;;;;;;;10.98;6.82;;;;;;;15.54;100.00;101371.16;6189675;23;20012;-82
2023/08/14 03:29:36;;;;;;;9.18;7.20;;;;;;;15.50;100.00;101364.53;6215774;23;20001;-83
2023/08/14 03:32:01;;;;;;;11.02;7.15;;;;;;;15.42;100.00;101349.41;6216287;23;20016;-83
2023/08/14 03:34:27;;;;;;;10.93;7.50;;;;;;;15.40;100.00;101339.91;6216602;23;20011;-83
2023/08/14 03:36:52;;;;;;;11.38;6.90;;;;;;;15.36;100.00;101344.78;6216253;23;20484;-82
2023/08/14 03:39:17;;;;;;;11.32;6.85;;;;;;;15.43;100.00;101351.06;6216330;23;20372;-82
2023/08/14 03:41:44;;;;;;;14.20;7.35;;;;;;;15.51;100.00;101362.69;6215795;23;20447;-82
2023/08/14 03:44:09;;;;;;;12.02;6.88;;;;;;;15.52;100.00;101372.34;6216203;23;20397;-82
2023/08/14 03:46:35;;;;;;;11.10;7.28;;;;;;;15.40;100.00;101351.41;6216391;23;20007;-82
2023/08/14 03:49:00;;;;;;;13.07;6.95;;;;;;;15.38;100.00;101364.13;6216926;23;20005;-83
2023/08/14 03:51:26;;;;;;;10.02;6.85;;;;;;;15.38;100.00;101361.47;6216797;23;20333;-83
2023/08/14 03:53:51;;;;;;;13.27;7.18;;;;;;;15.46;100.00;101380.09;6215946;23;20436;-83
2023/08/14 03:56:16;;;;;;;12.02;6.90;;;;;;;15.28;100.00;101347.50;6215671;23;20012;-83
2023/08/14 03:58:42;;;;;;;12.35;7.30;;;;;;;15.37;100.00;101358.97;6216045;23;20005;-83
2023/08/14 04:01:07;;;;;;;9.40;6.57;;;;;;;15.28;100.00;101358.19;6215805;23;20037;-83
2023/08/14 04:03:32;;;;;;;12.77;6.90;;;;;;;15.18;100.00;101345.94;6216094;23;20373;-83
2023/08/14 04:05:58;;;;;;;9.95;6.70;;;;;;;15.23;100.00;101355.22;6215036;23;20011;-82
2023/08/14 04:08:23;;;;;;;11.10;7.07;;;;;;;15.24;100.00;101370.28;6188939;23;20001;-83
2023/08/14 04:10:59;;;;;;;11.30;7.05;;;;;;;15.32;100.00;101364.84;6187289;23;20055;-83
2023/08/14 04:13:25;;;;;;;16.38;7.30;;;;;;;15.18;100.00;101347.75;6215009;23;20378;-82
2023/08/14 04:15:51;;;;;;;10.32;7.05;;;;;;;15.21;100.00;101352.75;6188923;23;20015;-82
2023/08/14 04:18:16;;;;;;;11.27;7.15;;;;;;;15.27;100.00;101353.88;6188901;23;20009;-83
2023/08/14 04:20:42;;;;;;;11.85;7.13;;;;;;;15.25;100.00;101353.22;6189119;23;20004;-82
2023/08/14 04:23:08;;;;;;;11.88;7.00;;;;;;;15.13;100.00;101337.63;6189729;23;20008;-82
2023/08/14 04:25:33;;;;;;;13.38;6.97;;;;;;;15.20;100.00;101338.56;6217746;23;20027;-83
2023/08/14 04:27:58;;;;;;;10.75;6.40;;;;;;;15.23;100.00;101336.53;6217793;23;20008;-83
2023/08/14 04:30:24;;;;;;;11.40;6.63;;;;;;;15.28;100.00;101340.34;6217605;23;20380;-82
2023/08/14 04:32:49;;;;;;;11.30;6.80;;;;;;;15.20;100.00;101330.53;6217817;23;20326;-82
2023/08/14 04:35:14;;;;;;;12.77;7.07;;;;;;;15.29;100.00;101341.19;6190068;23;20008;-82
2023/08/14 04:37:40;;;;;;;14.20;7.30;;;;;;;15.22;100.00;101333.03;6190903;23;20011;-83
2023/08/14 04:40:06;;;;;;;10.13;6.75;;;;;;;15.16;100.00;101323.09;6217444;23;20009;-82
2023/08/14 04:42:32;;;;;;;12.52;7.55;;;;;;;15.13;100.00;101308.25;6190613;23;20037;-83
2023/08/14 04:44:58;;;;;;;11.02;7.15;;;;;;;15.27;100.00;101332.50;6219380;23;20007;-82
2023/08/14 04:47:23;;;;;;;10.75;6.60;;;;;;;15.32;100.00;101338.13;6190931;23;20379;-82
2023/08/14 04:49:48;;;;;;;12.02;6.93;;;;;;;15.27;100.00;101330.66;6217749;23;20012;-82
2023/08/14 04:52:14;;;;;;;11.73;7.20;;;;;;;15.27;100.00;101322.66;6218254;23;20054;-83
2023/08/14 04:54:39;;;;;;;14.70;7.13;;;;;;;15.29;100.00;101323.28;6217586;23;20005;-82
2023/08/14 04:57:04;;;;;;;12.85;7.38;;;;;;;15.20;100.00;101303.84;6217443;23;20059;-83
2023/08/14 04:59:30;;;;;;;12.65;7.57;;;;;;;15.33;100.00;101318.41;6190908;23;20008;-83
2023/08/14 05:01:55;;;;;;;10.30;7.10;;;;;;;15.36;100.00;101304.69;6190574;23;20000;-83
2023/08/14 05:04:22;;;;;;;10.60;6.80;;;;;;;15.27;100.00;101287.06;6191164;23;20492;-83
2023/08/14 05:06:47;;;;;;;12.57;7.68;;;;;;;15.36;100.00;101296.69;6190992;23;20377;-84
2023/08/14 05:09:13;;;;;;;12.68;7.55;;;;;;;15.41;100.00;101296.13;6217466;23;20004;-84
2023/08/14 05:11:39;;;;;;;11.05;8.00;;;;;;;15.44;100.00;101299.25;6190894;23;20013;-82
2023/08/14 05:14:05;;;;;;;13.38;7.80;;;;;;;15.34;100.00;101277.31;6217867;23;20461;-83
2023/08/14 05:16:30;;;;;;;11.55;8.10;;;;;;;15.50;100.00;101296.88;6217573;23;20001;-83
2023/08/14 05:18:55;;;;;;;12.57;7.65;;;;;;;15.59;100.00;101301.09;6217773;23;20095;-86
2023/08/14 05:21:21;;;;;;;12.73;8.25;;;;;;;15.49;100.00;101284.53;6217457;23;20369;-84
2023/08/14 05:23:46;;;;;;;14.13;8.05;;;;;;;15.74;100.00;101301.97;6190781;23;20008;-84
2023/08/14 05:26:11;;;;;;;13.13;8.98;;;;;;;15.71;100.00;101285.47;6217615;23;20004;-84
2023/08/14 05:28:37;;;;;;;13.35;9.07;;;;;;;15.72;100.00;101295.97;6217786;23;20008;-84
2023/08/14 05:31:02;;;;;;;12.65;9.07;;;;;;;15.84;100.00;101306.22;6190843;23;20058;-84
2023/08/14 05:33:27;;;;;;;12.90;8.73;;;;;;;15.90;100.00;101309.97;6217810;23;20055;-84
2023/08/14 05:35:53;;;;;;;13.35;9.38;;;;;;;15.94;100.00;101309.44;6217651;23;20001;-83
2023/08/14 05:38:18;;;;;;;14.93;9.75;;;;;;;15.81;100.00;101295.88;6217520;23;20001;-84
2023/08/14 05:40:43;;;;;;;12.88;9.18;;;;;;;16.01;100.00;101317.56;6217661;23;20303;-83
2023/08/14 05:43:13;;;;;;;16.05;9.82;;;;;;;15.93;100.00;101312.31;6218323;23;20008;-84
2023/08/14 05:45:42;;;;;;;14.63;10.13;;;;;;;16.00;100.00;101327.41;6218535;23;20004;-83
2023/08/14 05:48:08;;;;;;;15.77;10.00;;;;;;;15.89;100.00;101309.13;6218779;23;20010;-83
2023/08/14 05:50:34;;;;;;;16.52;10.23;;;;;;;15.86;100.00;101310.34;6219499;23;20028;-81
2023/08/14 05:53:03;;;;;;;15.80;10.65;;;;;;;16.02;100.00;101326.44;6229625;23;20009;-80
2023/08/14 05:55:30;;;;;;;16.85;10.57;;;;;;;15.94;100.00;101330.03;6227765;23;19997;-84
2023/08/14 05:57:56;;;;;;;16.05;10.32;;;;;;;15.99;100.00;101333.78;6226747;23;20004;-83
2023/08/14 06:00:22;;;;;;;13.82;9.82;;;;;;;15.96;100.00;101323.47;6225835;23;20001;-82
2023/08/14 06:02:47;;;;;;;14.13;10.13;;;;;;;16.09;100.00;101344.19;6225357;23;20067;-83
2023/08/14 06:05:13;;;;;;;15.63;10.05;;;;;;;16.12;100.00;101343.00;6221033;23;20005;-85
2023/08/14 06:07:38;;;;;;;15.13;9.88;;;;;;;16.07;100.00;101335.53;6217596;23;20018;-85
2023/08/14 06:10:05;;;;;;;19.08;10.20;;;;;;;16.15;100.00;101348.00;6217552;23;20081;-85
2023/08/14 06:12:31;;;;;;;13.68;9.65;;;;;;;16.14;100.00;101343.66;6217164;23;20418;-83
2023/08/14 06:14:56;;;;;;;18.08;10.48;;;;;;;16.29;100.00;101361.53;6216980;23;20004;-83
2023/08/14 06:17:22;;;;;;;16.80;10.57;;;;;;;16.32;100.00;101353.16;6216625;23;20015;-84
2023/08/14 06:19:47;;;;;;;17.83;10.70;;;;;;;16.30;100.00;101339.09;6216403;23;20019;-84
2023/08/14 06:22:15;;;;;;;15.88;9.45;;;;;;;16.33;100.00;101333.38;6216459;23;20417;-84
2023/08/14 06:24:41;;;;;;;12.63;9.80;;;;;;;16.33;100.00;101333.38;6216362;23;20015;-85
2023/08/14 06:27:06;;;;;;;17.23;10.07;;;;;;;16.33;100.00;101307.44;6189777;23;20036;-85
2023/08/14 06:29:31;;;;;;;14.65;10.00;;;;;;;16.53;100.00;101331.75;6216581;23;20047;-85
2023/08/14 06:31:57;;;;;;;15.93;9.88;;;;;;;16.63;100.00;101327.97;6216953;23;20083;-87
2023/08/14 06:34:23;;;;;;;17.58;10.13;;;;;;;16.74;100.00;101335.50;6216737;23;20028;-87
2023/08/14 06:36:48;;;;;;;16.17;9.85;;;;;;;16.83;100.00;101327.31;6216674;23;20008;-86
2023/08/14 06:39:14;;;;;;;16.30;9.82;;;;;;;16.87;100.00;101308.00;6189638;23;20079;-84
2023/08/14 06:41:39;;;;;;;15.48;9.25;;;;;;;17.13;100.00;101337.94;6216395;23;20004;-85
2023/08/14 06:44:08;;;;;;;14.52;8.70;;;;;;;17.07;100.00;101313.56;6216678;23;20370;-85
2023/08/14 06:46:34;;;;;;;14.30;8.93;;;;;;;17.24;100.00;101324.00;6216466;23;20380;-86
2023/08/14 06:48:59;;;;;;;14.07;8.25;;;;;;;17.22;100.00;101331.41;6216257;23;20012;-84
2023/08/14 06:51:24;;;;;;;15.32;8.57;;;;;;;17.26;100.00;101327.31;6189546;23;20032;-84
2023/08/14 06:53:49;;;;;;;13.93;8.70;;;;;;;17.21;100.00;101308.31;6215957;23;20079;-85
2023/08/14 06:56:15;;;;;;;16.00;8.32;;;;;;;17.38;100.00;101316.91;6216180;23;20009;-86
2023/08/14 06:58:40;;;;;;;15.60;8.00;;;;;;;17.55;100.00;101325.47;6216332;23;20008;-86
2023/08/14 07:01:06;;;;;;;13.32;7.15;;;;;;;17.68;100.00;101318.53;6216719;23;20063;-85
2023/08/14 07:03:32;;;;;;;16.50;7.63;;;;;;;17.67;100.00;101300.78;6216882;23;20012;-85
2023/08/14 07:05:57;;;;;;;13.90;6.90;;;;;;;17.84;100.00;101307.47;6189776;23;20013;-85
2023/08/14 07:08:24;;;;;;;11.43;6.13;;;;;;;18.02;100.00;101314.16;6216486;23;20056;-85
2023/08/14 07:10:49;;;;;;;13.98;6.05;;;;;;;18.08;100.00;101302.66;6216532;23;20016;-86
2023/08/14 07:13:14;;;;;;;11.20;5.63;;;;;;;18.23;100.00;101325.84;6216370;23;20345;-85
2023/08/14 07:15:40;;;;;;;15.70;5.95;;;;;;;18.17;100.00;101319.41;6220582;23;20004;-86
2023/08/14 07:18:06;;;;;;;11.25;5.45;;;;;;;18.13;100.00;101313.63;6220868;23;20012;-85
2023/08/14 07:20:31;;;;;;;13.85;5.72;;;;;;;18.12;100.00;101306.59;6236036;22;20016;-86
2023/08/14 07:22:56;;;;;;;9.55;5.10;;;;;;;18.19;99.99;101314.66;6241630;23;20005;-86
2023/08/14 07:25:22;;;;;;;14.23;5.28;;;;;;;18.21;98.77;101322.53;6221237;23;20011;-85
2023/08/14 07:27:47;;;;;;;10.48;4.80;;;;;;;18.02;99.53;101303.44;6189390;23;20009;-84
2023/08/14 07:30:14;;;;;;;10.43;5.20;;;;;;;18.22;97.80;101337.59;6216345;23;20581;-85
2023/08/14 07:32:39;;;;;;;9.43;4.88;;;;;;;18.26;96.03;101337.00;6189490;23;20362;-85
2023/08/14 07:35:05;;;;;;;10.60;4.60;;;;;;;18.19;94.69;101340.66;6189323;23;20008;-84
2023/08/14 07:37:30;;;;;;;9.43;4.97;;;;;;;18.20;94.41;101350.41;6216238;23;20593;-85
2023/08/14 07:39:55;;;;;;;12.57;5.10;;;;;;;18.25;96.42;101355.97;6216056;23;20433;-85
2023/08/14 07:42:21;;;;;;;14.18;5.00;;;;;;;18.27;96.60;101349.38;6215655;23;20009;-84
2023/08/14 07:44:46;;;;;;;9.85;4.75;;;;;;;18.33;95.97;101353.13;6215523;23;20005;-85
2023/08/14 07:47:12;;;;;;;14.13;5.28;;;;;;;18.43;96.51;101342.00;6189151;23;20401;-85
2023/08/14 07:49:38;;;;;;;12.85;4.47;;;;;;;18.60;94.82;101347.03;6215946;23;20020;-85
2023/08/14 07:52:06;;;;;;;9.63;4.50;;;;;;;18.72;94.60;101344.56;6189480;23;20103;-85
2023/08/14 07:54:31;;;;;;;9.75;4.40;;;;;;;18.70;94.80;101320.56;6216127;23;20004;-85
2023/08/14 07:56:57;;;;;;;10.13;3.97;;;;;;;18.93;93.26;101351.63;6215433;23;20311;-85
2023/08/14 07:59:22;;;;;;;12.50;4.80;;;;;;;18.88;91.51;101338.81;6215442;23;20473;-85
2023/08/14 08:01:48;;;;;;;9.27;3.92;;;;;;;18.88;91.74;101333.44;6215196;23;20039;-85
2023/08/14 08:04:13;;;;;;;13.13;4.13;;;;;;;18.88;90.49;101322.69;6215878;23;20311;-85
2023/08/14 08:06:39;;;;;;;11.93;3.70;;;;;;;18.98;89.16;101333.03;6215547;23;20039;-85
2023/08/14 08:09:04;;;;;;;10.60;3.65;;;;;;;19.19;88.63;101350.84;6215613;23;20035;-86
2023/08/14 08:11:30;;;;;;;8.27;3.38;;;;;;;19.30;87.21;101345.88;6215411;23;20011;-85
2023/08/14 08:13:56;;;;;;;9.88;3.72;;;;;;;19.37;87.01;101341.31;6215762;23;20083;-85
2023/08/14 08:16:21;;;;;;;11.93;3.60;;;;;;;19.35;85.54;101316.50;6215525;23;20012;-85
2023/08/14 08:18:46;;;;;;;8.98;3.30;;;;;;;19.47;84.42;101320.22;6215144;23;20032;-86
2023/08/14 08:21:12;;;;;;;10.55;3.60;;;;;;;19.60;86.06;101329.31;6215410;23;20000;-84
2023/08/14 08:23:37;;;;;;;5.97;3.10;;;;;;;19.74;85.37;101330.91;6215420;23;20314;-84
2023/08/14 08:26:03;;;;;;;10.45;3.42;;;;;;;19.77;84.15;101318.91;6215459;23;20389;-85
2023/08/14 08:28:28;;;;;;;7.78;3.10;;;;;;;19.85;81.91;101316.00;6215718;23;20009;-85
2023/08/14 08:30:53;;;;;;;7.22;3.10;;;;;;;20.01;81.86;101303.97;6215492;23;20008;-85
2023/08/14 08:33:19;;;;;;;9.35;3.10;;;;;;;20.15;81.94;101328.13;6215447;23;20429;-86
2023/08/14 08:35:45;;;;;;;7.40;3.03;;;;;;;20.10;81.37;101306.41;6215532;23;20448;-84
2023/08/14 08:38:10;;;;;;;6.82;3.03;;;;;;;20.22;79.33;101304.69;6215408;23;20008;-85
2023/08/14 08:40:36;;;;;;;9.02;2.88;;;;;;;20.33;78.12;101310.44;6215578;23;20012;-84
2023/08/14 08:43:02;;;;;;;5.53;2.55;;;;;;;20.42;77.17;101314.50;6215364;23;20039;-84
2023/08/14 08:45:31;;;;;;;4.65;2.47;;;;;;;20.43;76.36;101311.59;6215271;23;20019;-85
2023/08/14 08:47:59;;;;;;;6.50;2.53;;;;;;;20.41;76.02;101312.88;6188765;23;20389;-85
2023/08/14 08:50:27;;;;;;;8.68;2.80;;;;;;;20.56;74.88;101321.50;6188988;23;20016;-84
2023/08/14 08:52:54;;;;;;;4.88;2.50;;;;;;;20.69;74.79;101314.34;6215060;23;20000;-85
2023/08/14 08:55:20;;;;;;;8.32;2.70;;;;;;;20.70;74.81;101305.22;6215360;23;20017;-84
2023/08/14 08:57:46;;;;;;;6.45;2.70;;;;;;;20.83;74.42;101299.72;6215444;23;20053;-85
2023/08/14 09:00:12;;;;;;;4.90;2.50;;;;;;;20.92;73.04;101307.59;6215472;23;20005;-85
2023/08/14 09:02:37;;;;;;;6.28;2.60;;;;;;;21.08;72.96;101317.81;6188869;23;20059;-85
2023/08/14 09:05:03;;;;;;;6.47;2.53;;;;;;;21.19;73.53;101315.44;6215575;23;20139;-84
2023/08/14 09:07:29;;;;;;;8.32;2.60;;;;;;;21.22;72.08;101309.63;6215712;23;20086;-83
2023/08/14 09:09:54;;;;;;;10.02;2.90;;;;;;;21.21;71.64;101299.84;6216763;23;20421;-85
2023/08/14 09:12:20;;;;;;;6.25;2.50;;;;;;;21.25;71.06;101289.47;6217066;23;20066;-84
2023/08/14 09:15:04;;;;;;;6.20;2.50;;;;;;;21.37;70.68;101304.69;6217802;23;20047;-85
2023/08/14 09:17:30;;;;;;;9.13;2.78;;;;;;;21.45;68.56;101313.53;6216682;23;20008;-85
2023/08/14 09:19:55;;;;;;;8.82;2.70;;;;;;;21.48;69.06;101299.63;6217225;23;20012;-86
2023/08/14 09:22:20;;;;;;;5.55;2.55;;;;;;;21.59;69.12;101311.53;6217709;23;20457;-84
2023/08/14 09:24:48;;;;;;;6.55;2.40;;;;;;;21.58;67.40;101310.72;6191118;23;20005;-86
2023/08/14 09:27:15;;;;;;;9.25;2.90;;;;;;;21.67;69.69;101302.31;6217286;23;20324;-86
2023/08/14 09:29:41;;;;;;;4.63;2.60;;;;;;;21.78;69.21;101309.69;6217724;23;19996;-87
2023/08/14 09:32:06;;;;;;;6.47;2.50;;;;;;;21.73;65.51;101304.16;6217495;23;20456;-86
2023/08/14 09:34:32;;;;;;;5.18;2.40;;;;;;;21.93;65.15;101316.56;6217989;23;20341;-91
2023/08/14 09:36:58;;;;;;;4.95;2.42;;;;;;;22.02;65.99;101334.94;6192417;23;20054;-86
2023/08/14 09:39:24;;;;;;;6.20;2.60;;;;;;;22.01;65.97;101313.59;6218143;23;20372;-85
2023/08/14 09:41:49;;;;;;;6.15;2.88;;;;;;;22.12;63.81;101330.91;6217123;23;20127;-86
2023/08/14 09:44:19;;;;;;;6.43;2.30;;;;;;;22.12;64.52;101326.31;6218351;23;20000;-85
2023/08/14 09:46:44;;;;;;;4.90;2.40;;;;;;;22.28;65.11;101334.84;6218299;23;20070;-87
2023/08/14 09:49:10;;;;;;;5.28;2.40;;;;;;;22.35;63.32;101324.75;6217815;23;20008;-87
2023/08/14 09:51:36;;;;;;;7.35;2.30;;;;;;;22.34;62.06;101316.91;6217247;23;20011;-85
2023/08/14 09:54:02;;;;;;;5.55;2.38;;;;;;;22.50;62.32;101335.16;6217541;23;20012;-87
2023/08/14 09:56:28;;;;;;;6.82;2.50;;;;;;;22.54;60.25;101322.03;6217481;23;20008;-87
2023/08/14 09:58:54;;;;;;;6.97;2.40;;;;;;;22.50;60.26;101301.91;6217530;23;20004;-86
2023/08/14 10:01:21;;;;;;;3.83;2.20;;;;;;;22.58;60.21;101307.00;6217323;23;20084;-86
2023/08/14 10:03:49;;;;;;;5.47;2.60;;;;;;;22.43;61.02;101280.38;6217286;23;20061;-87
2023/08/14 10:06:15;;;;;;;6.47;2.58;;;;;;;22.63;60.90;101298.22;6190431;23;20016;-85
2023/08/14 10:08:44;;;;;;;7.05;2.45;;;;;;;22.76;59.90;101302.59;6217213;23;20465;-88
2023/08/14 10:11:15;;;;;;;5.68;2.45;;;;;;;22.86;59.65;101302.84;6217311;23;20020;-87
2023/08/14 10:13:52;;;;;;;6.65;2.42;;;;;;;22.89;61.08;101290.75;6190694;23;20074;-90
2023/08/14 10:16:23;;;;;;;7.50;2.50;;;;;;;23.05;57.17;101289.22;6217543;23;20005;-89
2023/08/14 10:18:53;;;;;;;4.20;2.30;;;;;;;23.01;57.20;101263.69;6217178;23;20047;-86
2023/08/14 10:21:20;;;;;;;6.45;2.50;;;;;;;23.17;57.20;101275.69;6216329;23;20001;-84
2023/08/14 10:23:47;;;;;;;7.22;2.40;;;;;;;23.17;55.38;101272.97;6217659;23;20056;-88
2023/08/14 10:26:14;;;;;;;5.75;2.20;;;;;;;23.10;55.65;101254.19;6219197;23;20458;-86
2023/08/14 10:28:41;;;;;;;5.43;2.40;;;;;;;23.12;56.46;101241.25;6195545;23;20091;-86
2023/08/14 10:31:09;;;;;;;5.57;2.30;;;;;;;23.16;56.69;101236.19;6217112;23;20024;-87
2023/08/14 10:33:36;;;;;;;6.85;2.58;;;;;;;23.10;55.63;101225.25;6190676;23;20062;-85
2023/08/14 10:36:02;;;;;;;6.50;2.40;;;;;;;23.19;55.95;101230.31;6216277;23;20088;-82
2023/08/14 10:38:46;;;;;;;6.65;2.50;;;;;;;23.38;56.77;101241.81;6216057;23;20008;-83
2023/08/14 10:41:16;;;;;;;5.90;2.67;;;;;;;23.40;54.67;101245.13;6216317;23;20001;-80
2023/08/14 10:43:42;;;;;;;5.15;2.50;;;;;;;23.40;56.50;101239.72;6215742;23;20008;-80
2023/08/14 10:46:09;;;;;;;5.82;2.30;;;;;;;23.55;55.60;101241.91;6216206;23;20016;-81
2023/08/14 10:48:38;;;;;;;5.38;2.35;;;;;;;23.63;54.19;101248.84;6215548;23;20062;-81
2023/08/14 10:51:06;;;;;;;5.53;2.30;;;;;;;23.61;54.80;101234.72;6189783;23;20009;-82
2023/08/14 10:53:32;;;;;;;5.78;2.50;;;;;;;23.72;53.89;101244.69;6215671;23;20437;-82
2023/08/14 10:55:58;;;;;;;3.80;2.25;;;;;;;23.89;54.55;101244.72;6189153;23;20058;-80
2023/08/14 10:58:36;;;;;;;6.53;2.33;;;;;;;23.91;54.36;101258.03;6215568;23;20008;-82
2023/08/14 11:01:02;;;;;;;8.63;2.70;;;;;;;23.99;54.09;101243.31;6215794;23;20425;-81
2023/08/14 11:03:28;;;;;;;7.70;2.50;;;;;;;24.01;54.95;101252.00;6215531;23;20032;-81
2023/08/14 11:05:54;;;;;;;7.40;2.50;;;;;;;23.97;52.72;101240.81;6215377;23;20008;-81
2023/08/14 11:08:20;;;;;;;6.00;2.40;;;;;;;24.11;53.95;101252.22;6215503;23;20018;-81
2023/08/14 11:10:49;;;;;;;6.72;2.35;;;;;;;24.15;54.71;101255.25;6215664;23;20000;-80